LGSK

Skiathos Island National Airport

Skiathos, Greece
TAF LGSK 172000Z 1721/1806 07025G35KT 9999 SCT012 BKN025 PROB40 TEMPO 1721/1806 5000 RA PROB30 TEMPO 1800/1806 3000 TSRA SCT018CB BKN025
Issued Valid From Valid To
Nov-17 @ 20:00 UTC
(2 hours ago)
Nov-17 @ 21:00 UTC
(an hour ago)
Nov-18 @ 06:00 UTC
(in 8 hours)
Nov-17 @ 21:00 to Nov-18 @ 06:00
TAF LGSK 172000Z 1721/1806 07025G35KT 9999 SCT012 BKN025
Wind Visibility Clouds
70° at 25 knots
 Gusting to 35 knots
10,000+ meters
  • Scattered at 1,200' AGL
  • Broken at 2,500' AGL
Temporary  (Probability 40%) Nov-17 @ 21:00 to Nov-18 @ 06:00
PROB40 TEMPO 1721/1806 5000 RA
Visibility Conditions
5,005 meters
  • Rain
Temporary  (Probability 30%) Nov-18 @ 00:00 to Nov-18 @ 06:00
PROB30 TEMPO 1800/1806 3000 TSRA SCT018CB BKN025
Visibility Clouds Conditions
2,993 meters
  • Scattered at 1,800' AGL
  • Broken at 2,500' AGL
  • Thunderstorm
  • Rain
TAF LGSK 172000Z 1721/1806 07025G35KT 9999 SCT012 BKN025 PROB40 TEMPO 1721/1806 5000 RA PROB30 TEMPO 1800/1806 3000 TSRA SCT018CB BKN025
Issued Nov-17 @ 20:00 UTC
(2 hours ago)
Valid From Nov-17 @ 21:00 UTC
(an hour ago)
Valid To Nov-18 @ 06:00 UTC
(in 8 hours)
Nov-17 @ 21:00 - Nov-18 @ 06:00
Wind Visibility
70° at 25 knots
 Gusting to 35 knots
10,000+ meters
Clouds
  • Scattered at 1,200' AGL
  • Broken at 2,500' AGL
Probability 40% Temporary Nov-17 @ 21:00 - Nov-18 @ 06:00
Conditions
  • Rain
Probability 30% Temporary Nov-18 @ 00:00 - Nov-18 @ 06:00
Clouds
  • Scattered at 1,800' AGL
  • Broken at 2,500' AGL
Conditions
  • Thunderstorm
  • Rain